Terminal Aerodrome Forecast
Issued by NWS

Home | Current Version | Previous Version | Text Only | Print | Product List | Glossary On
Versions: 1 2 3 4 5 6 7 8 9 10 11 12 13 14
000
FTUS46 KOTX 270520
TAFCOE
TAF
KCOE 270520Z 2706/2806 15005KT P6SM SCT120 BKN250
     FM271000 15003KT P6SM SKC
     FM271800 27006KT P6SM FEW050 FEW120 SCT200
     FM280300 18003KT P6SM FEW200=

USA.gov is the U.S. government's official web portal to all federal, state and local government web resources and services.